sensor_id;sensor_type;location;lat;lon;timestamp;temperature;humidity
16871;DHT22;8552;48.120;-1.456;2023-04-06T00:01:49;8.90;99.90
16871;DHT22;8552;48.120;-1.456;2023-04-06T00:04:16;8.90;99.90
16871;DHT22;8552;48.120;-1.456;2023-04-06T00:06:42;8.90;99.90
16871;DHT22;8552;48.120;-1.456;2023-04-06T00:09:07;8.90;99.90
16871;DHT22;8552;48.120;-1.456;2023-04-06T00:11:33;8.80;99.90
16871;DHT22;8552;48.120;-1.456;2023-04-06T00:13:59;8.80;99.90
16871;DHT22;8552;48.120;-1.456;2023-04-06T00:16:25;8.90;99.90
16871;DHT22;8552;48.120;-1.456;2023-04-06T00:18:51;8.80;99.90
16871;DHT22;8552;48.120;-1.456;2023-04-06T00:21:17;8.80;99.90
16871;DHT22;8552;48.120;-1.456;2023-04-06T00:23:43;8.80;99.90
16871;DHT22;8552;48.120;-1.456;2023-04-06T00:26:08;8.80;99.90
16871;DHT22;8552;48.120;-1.456;2023-04-06T00:28:36;8.80;99.90
16871;DHT22;8552;48.120;-1.456;2023-04-06T00:31:02;8.80;99.90
16871;DHT22;8552;48.120;-1.456;2023-04-06T00:33:28;8.80;99.90
16871;DHT22;8552;48.120;-1.456;2023-04-06T00:35:53;8.80;99.90
16871;DHT22;8552;48.120;-1.456;2023-04-06T00:38:19;8.80;99.90
16871;DHT22;8552;48.120;-1.456;2023-04-06T00:40:46;8.80;99.90
16871;DHT22;8552;48.120;-1.456;2023-04-06T00:43:12;8.70;99.90
16871;DHT22;8552;48.120;-1.456;2023-04-06T00:45:40;8.70;99.90
16871;DHT22;8552;48.120;-1.456;2023-04-06T00:48:06;8.70;99.90
16871;DHT22;8552;48.120;-1.456;2023-04-06T00:50:32;8.70;99.90
16871;DHT22;8552;48.120;-1.456;2023-04-06T00:52:59;8.80;99.90
16871;DHT22;8552;48.120;-1.456;2023-04-06T00:55:26;8.70;99.90
16871;DHT22;8552;48.120;-1.456;2023-04-06T00:57:52;8.70;99.90
16871;DHT22;8552;48.120;-1.456;2023-04-06T01:00:18;8.70;99.90
16871;DHT22;8552;48.120;-1.456;2023-04-06T01:02:43;8.70;99.90
16871;DHT22;8552;48.120;-1.456;2023-04-06T01:05:10;8.70;99.90
16871;DHT22;8552;48.120;-1.456;2023-04-06T01:07:36;8.70;99.90
16871;DHT22;8552;48.120;-1.456;2023-04-06T01:10:02;8.70;99.90
16871;DHT22;8552;48.120;-1.456;2023-04-06T01:12:28;8.70;99.90
16871;DHT22;8552;48.120;-1.456;2023-04-06T01:14:54;8.70;99.90
16871;DHT22;8552;48.120;-1.456;2023-04-06T01:17:21;8.70;99.90
16871;DHT22;8552;48.120;-1.456;2023-04-06T01:19:46;8.70;99.90
16871;DHT22;8552;48.120;-1.456;2023-04-06T01:22:18;8.70;99.90
16871;DHT22;8552;48.120;-1.456;2023-04-06T01:24:44;8.70;99.90
16871;DHT22;8552;48.120;-1.456;2023-04-06T01:27:10;8.70;99.90
16871;DHT22;8552;48.120;-1.456;2023-04-06T01:29:36;8.70;99.90
16871;DHT22;8552;48.120;-1.456;2023-04-06T01:32:02;8.70;99.90
16871;DHT22;8552;48.120;-1.456;2023-04-06T01:34:27;8.70;99.90
16871;DHT22;8552;48.120;-1.456;2023-04-06T01:36:53;8.70;99.90
16871;DHT22;8552;48.120;-1.456;2023-04-06T01:39:19;8.70;99.90
16871;DHT22;8552;48.120;-1.456;2023-04-06T01:41:45;8.70;99.90
16871;DHT22;8552;48.120;-1.456;2023-04-06T01:44:14;8.70;99.90
16871;DHT22;8552;48.120;-1.456;2023-04-06T01:46:40;8.60;99.90
16871;DHT22;8552;48.120;-1.456;2023-04-06T01:49:06;8.60;99.90
16871;DHT22;8552;48.120;-1.456;2023-04-06T01:51:31;8.70;99.90
16871;DHT22;8552;48.120;-1.456;2023-04-06T01:53:57;8.70;99.90
16871;DHT22;8552;48.120;-1.456;2023-04-06T01:56:23;8.70;99.90
16871;DHT22;8552;48.120;-1.456;2023-04-06T01:58:52;8.70;99.90
16871;DHT22;8552;48.120;-1.456;2023-04-06T02:01:17;8.70;99.90
16871;DHT22;8552;48.120;-1.456;2023-04-06T02:03:43;8.70;99.90
16871;DHT22;8552;48.120;-1.456;2023-04-06T02:06:09;8.70;99.90
16871;DHT22;8552;48.120;-1.456;2023-04-06T02:08:35;8.70;99.90
16871;DHT22;8552;48.120;-1.456;2023-04-06T02:11:00;8.60;99.90
16871;DHT22;8552;48.120;-1.456;2023-04-06T02:13:26;8.60;99.90
16871;DHT22;8552;48.120;-1.456;2023-04-06T02:15:52;8.60;99.90
16871;DHT22;8552;48.120;-1.456;2023-04-06T02:18:17;8.60;99.90
16871;DHT22;8552;48.120;-1.456;2023-04-06T02:20:44;8.60;99.90
16871;DHT22;8552;48.120;-1.456;2023-04-06T02:23:10;8.60;99.90
16871;DHT22;8552;48.120;-1.456;2023-04-06T02:25:36;8.60;99.90
16871;DHT22;8552;48.120;-1.456;2023-04-06T02:28:02;8.60;99.90
16871;DHT22;8552;48.120;-1.456;2023-04-06T02:30:28;8.60;99.90
16871;DHT22;8552;48.120;-1.456;2023-04-06T02:32:54;8.60;99.90
16871;DHT22;8552;48.120;-1.456;2023-04-06T02:35:22;8.60;99.90
16871;DHT22;8552;48.120;-1.456;2023-04-06T02:37:47;8.60;99.90
16871;DHT22;8552;48.120;-1.456;2023-04-06T02:40:14;8.60;99.90
16871;DHT22;8552;48.120;-1.456;2023-04-06T02:42:39;8.60;99.90
16871;DHT22;8552;48.120;-1.456;2023-04-06T02:45:06;8.50;99.90
16871;DHT22;8552;48.120;-1.456;2023-04-06T02:47:32;8.60;99.90
16871;DHT22;8552;48.120;-1.456;2023-04-06T02:49:58;8.50;99.90
16871;DHT22;8552;48.120;-1.456;2023-04-06T02:52:24;8.50;99.90
16871;DHT22;8552;48.120;-1.456;2023-04-06T02:54:50;8.50;99.90
16871;DHT22;8552;48.120;-1.456;2023-04-06T02:57:16;8.50;99.90
16871;DHT22;8552;48.120;-1.456;2023-04-06T02:59:42;8.40;99.90
16871;DHT22;8552;48.120;-1.456;2023-04-06T03:02:08;8.40;99.90
16871;DHT22;8552;48.120;-1.456;2023-04-06T03:04:34;8.40;99.90
16871;DHT22;8552;48.120;-1.456;2023-04-06T03:06:59;8.40;99.90
16871;DHT22;8552;48.120;-1.456;2023-04-06T03:09:26;8.40;99.90
16871;DHT22;8552;48.120;-1.456;2023-04-06T03:11:51;8.40;99.90
16871;DHT22;8552;48.120;-1.456;2023-04-06T03:14:17;8.40;99.90
16871;DHT22;8552;48.120;-1.456;2023-04-06T03:16:47;8.40;99.90
16871;DHT22;8552;48.120;-1.456;2023-04-06T03:19:13;8.40;99.90
16871;DHT22;8552;48.120;-1.456;2023-04-06T03:21:38;8.40;99.90
16871;DHT22;8552;48.120;-1.456;2023-04-06T03:24:05;8.40;99.90
16871;DHT22;8552;48.120;-1.456;2023-04-06T03:26:31;8.40;99.90
16871;DHT22;8552;48.120;-1.456;2023-04-06T03:28:56;8.40;99.90
16871;DHT22;8552;48.120;-1.456;2023-04-06T03:31:24;8.40;99.90
16871;DHT22;8552;48.120;-1.456;2023-04-06T03:33:50;8.40;99.90
16871;DHT22;8552;48.120;-1.456;2023-04-06T03:36:15;8.40;99.90
16871;DHT22;8552;48.120;-1.456;2023-04-06T03:38:41;8.40;99.90
16871;DHT22;8552;48.120;-1.456;2023-04-06T03:41:07;8.40;99.90
16871;DHT22;8552;48.120;-1.456;2023-04-06T03:43:32;8.40;99.90
16871;DHT22;8552;48.120;-1.456;2023-04-06T03:45:58;8.40;99.90
16871;DHT22;8552;48.120;-1.456;2023-04-06T03:48:24;8.40;99.90
16871;DHT22;8552;48.120;-1.456;2023-04-06T03:50:49;8.40;99.90
16871;DHT22;8552;48.120;-1.456;2023-04-06T03:53:15;8.40;99.90
16871;DHT22;8552;48.120;-1.456;2023-04-06T03:55:41;8.40;99.90
16871;DHT22;8552;48.120;-1.456;2023-04-06T03:58:06;8.40;99.90
16871;DHT22;8552;48.120;-1.456;2023-04-06T04:00:32;8.40;99.90
16871;DHT22;8552;48.120;-1.456;2023-04-06T04:02:58;8.40;99.90
16871;DHT22;8552;48.120;-1.456;2023-04-06T04:05:24;8.40;99.90
16871;DHT22;8552;48.120;-1.456;2023-04-06T04:07:52;8.40;99.90
16871;DHT22;8552;48.120;-1.456;2023-04-06T04:10:17;8.40;99.90
16871;DHT22;8552;48.120;-1.456;2023-04-06T04:12:43;8.40;99.90
16871;DHT22;8552;48.120;-1.456;2023-04-06T04:15:09;8.40;99.90
16871;DHT22;8552;48.120;-1.456;2023-04-06T04:17:35;8.50;99.90
16871;DHT22;8552;48.120;-1.456;2023-04-06T04:20:01;8.40;99.90
16871;DHT22;8552;48.120;-1.456;2023-04-06T04:22:26;8.50;99.90
16871;DHT22;8552;48.120;-1.456;2023-04-06T04:24:53;8.50;99.90
16871;DHT22;8552;48.120;-1.456;2023-04-06T04:27:19;8.50;99.90
16871;DHT22;8552;48.120;-1.456;2023-04-06T04:29:45;8.50;99.90
16871;DHT22;8552;48.120;-1.456;2023-04-06T04:32:10;8.50;99.90
16871;DHT22;8552;48.120;-1.456;2023-04-06T04:34:36;8.50;99.90
16871;DHT22;8552;48.120;-1.456;2023-04-06T04:37:05;8.40;99.90
16871;DHT22;8552;48.120;-1.456;2023-04-06T04:39:31;8.50;99.90
16871;DHT22;8552;48.120;-1.456;2023-04-06T04:41:57;8.50;99.90
16871;DHT22;8552;48.120;-1.456;2023-04-06T04:44:23;8.50;99.90
16871;DHT22;8552;48.120;-1.456;2023-04-06T04:46:49;8.50;99.90
16871;DHT22;8552;48.120;-1.456;2023-04-06T04:49:15;8.50;99.90
16871;DHT22;8552;48.120;-1.456;2023-04-06T04:51:41;8.50;99.90
16871;DHT22;8552;48.120;-1.456;2023-04-06T04:54:08;8.50;99.90
16871;DHT22;8552;48.120;-1.456;2023-04-06T04:56:33;8.50;99.90
16871;DHT22;8552;48.120;-1.456;2023-04-06T04:58:59;8.50;99.90
16871;DHT22;8552;48.120;-1.456;2023-04-06T05:01:25;8.50;99.90
16871;DHT22;8552;48.120;-1.456;2023-04-06T05:03:51;8.50;99.90
16871;DHT22;8552;48.120;-1.456;2023-04-06T05:06:16;8.50;99.90
16871;DHT22;8552;48.120;-1.456;2023-04-06T05:08:43;8.50;99.90
16871;DHT22;8552;48.120;-1.456;2023-04-06T05:11:09;8.50;99.90
16871;DHT22;8552;48.120;-1.456;2023-04-06T05:13:35;8.50;99.90
16871;DHT22;8552;48.120;-1.456;2023-04-06T05:16:01;8.50;99.90
16871;DHT22;8552;48.120;-1.456;2023-04-06T05:18:26;8.50;99.90
16871;DHT22;8552;48.120;-1.456;2023-04-06T05:20:52;8.50;99.90
16871;DHT22;8552;48.120;-1.456;2023-04-06T05:23:18;8.50;99.90
16871;DHT22;8552;48.120;-1.456;2023-04-06T05:25:44;8.50;99.90
16871;DHT22;8552;48.120;-1.456;2023-04-06T05:28:10;8.50;99.90
16871;DHT22;8552;48.120;-1.456;2023-04-06T05:30:35;8.50;99.90
16871;DHT22;8552;48.120;-1.456;2023-04-06T05:33:02;8.50;99.90
16871;DHT22;8552;48.120;-1.456;2023-04-06T05:35:28;8.50;99.90
16871;DHT22;8552;48.120;-1.456;2023-04-06T05:37:53;8.50;99.90
16871;DHT22;8552;48.120;-1.456;2023-04-06T05:40:19;8.50;99.90
16871;DHT22;8552;48.120;-1.456;2023-04-06T05:42:45;8.50;99.90
16871;DHT22;8552;48.120;-1.456;2023-04-06T05:45:12;8.50;99.90
16871;DHT22;8552;48.120;-1.456;2023-04-06T05:47:42;8.50;99.90
16871;DHT22;8552;48.120;-1.456;2023-04-06T05:50:09;8.50;99.90
16871;DHT22;8552;48.120;-1.456;2023-04-06T05:52:35;8.50;99.90
16871;DHT22;8552;48.120;-1.456;2023-04-06T05:55:01;8.50;99.90
16871;DHT22;8552;48.120;-1.456;2023-04-06T05:57:27;8.60;99.90
16871;DHT22;8552;48.120;-1.456;2023-04-06T05:59:53;8.60;99.90
16871;DHT22;8552;48.120;-1.456;2023-04-06T06:02:18;8.60;99.90
16871;DHT22;8552;48.120;-1.456;2023-04-06T06:04:44;8.60;99.90
16871;DHT22;8552;48.120;-1.456;2023-04-06T06:07:10;8.60;99.90
16871;DHT22;8552;48.120;-1.456;2023-04-06T06:09:36;8.60;99.90
16871;DHT22;8552;48.120;-1.456;2023-04-06T06:12:01;8.60;99.90
16871;DHT22;8552;48.120;-1.456;2023-04-06T06:14:27;8.70;99.90
16871;DHT22;8552;48.120;-1.456;2023-04-06T06:16:54;8.60;99.90
16871;DHT22;8552;48.120;-1.456;2023-04-06T06:19:20;8.60;99.90
16871;DHT22;8552;48.120;-1.456;2023-04-06T06:21:46;8.70;99.90
16871;DHT22;8552;48.120;-1.456;2023-04-06T06:24:12;8.70;99.90
16871;DHT22;8552;48.120;-1.456;2023-04-06T06:26:40;8.70;99.90
16871;DHT22;8552;48.120;-1.456;2023-04-06T06:29:07;8.70;99.90
16871;DHT22;8552;48.120;-1.456;2023-04-06T06:31:33;8.70;99.90
16871;DHT22;8552;48.120;-1.456;2023-04-06T06:33:59;8.80;99.90
16871;DHT22;8552;48.120;-1.456;2023-04-06T06:36:25;8.80;99.90
16871;DHT22;8552;48.120;-1.456;2023-04-06T06:38:51;8.80;99.90
16871;DHT22;8552;48.120;-1.456;2023-04-06T06:41:17;8.80;99.90
16871;DHT22;8552;48.120;-1.456;2023-04-06T06:43:43;8.80;99.90
16871;DHT22;8552;48.120;-1.456;2023-04-06T06:46:08;8.90;99.90
16871;DHT22;8552;48.120;-1.456;2023-04-06T06:48:34;8.90;99.90
16871;DHT22;8552;48.120;-1.456;2023-04-06T06:51:00;8.90;99.90
16871;DHT22;8552;48.120;-1.456;2023-04-06T06:53:26;8.90;99.90
16871;DHT22;8552;48.120;-1.456;2023-04-06T06:55:52;9.00;99.90
16871;DHT22;8552;48.120;-1.456;2023-04-06T06:58:18;9.10;99.90
16871;DHT22;8552;48.120;-1.456;2023-04-06T07:00:47;9.10;99.90
16871;DHT22;8552;48.120;-1.456;2023-04-06T07:03:13;9.20;99.90
16871;DHT22;8552;48.120;-1.456;2023-04-06T07:05:45;9.20;99.90
16871;DHT22;8552;48.120;-1.456;2023-04-06T07:08:16;9.30;99.90
16871;DHT22;8552;48.120;-1.456;2023-04-06T07:10:41;9.40;99.90
16871;DHT22;8552;48.120;-1.456;2023-04-06T07:13:07;9.50;99.90
16871;DHT22;8552;48.120;-1.456;2023-04-06T07:15:33;9.40;99.90
16871;DHT22;8552;48.120;-1.456;2023-04-06T07:17:59;9.50;99.90
16871;DHT22;8552;48.120;-1.456;2023-04-06T07:20:25;9.50;99.90
16871;DHT22;8552;48.120;-1.456;2023-04-06T07:22:51;9.50;99.90
16871;DHT22;8552;48.120;-1.456;2023-04-06T07:25:16;9.60;99.90
16871;DHT22;8552;48.120;-1.456;2023-04-06T07:27:42;9.70;99.90
16871;DHT22;8552;48.120;-1.456;2023-04-06T07:30:08;9.80;99.90
16871;DHT22;8552;48.120;-1.456;2023-04-06T07:32:34;9.80;99.90
16871;DHT22;8552;48.120;-1.456;2023-04-06T07:35:01;9.80;99.90
16871;DHT22;8552;48.120;-1.456;2023-04-06T07:37:27;9.80;99.90
16871;DHT22;8552;48.120;-1.456;2023-04-06T07:39:53;9.80;99.90
16871;DHT22;8552;48.120;-1.456;2023-04-06T07:42:18;9.80;99.90
16871;DHT22;8552;48.120;-1.456;2023-04-06T07:44:44;9.90;99.90
16871;DHT22;8552;48.120;-1.456;2023-04-06T07:47:11;9.90;99.90
16871;DHT22;8552;48.120;-1.456;2023-04-06T07:49:37;9.90;99.90
16871;DHT22;8552;48.120;-1.456;2023-04-06T07:52:03;9.90;99.90
16871;DHT22;8552;48.120;-1.456;2023-04-06T07:54:29;10.00;99.90
16871;DHT22;8552;48.120;-1.456;2023-04-06T07:56:55;10.00;99.90
16871;DHT22;8552;48.120;-1.456;2023-04-06T07:59:20;10.00;99.90
16871;DHT22;8552;48.120;-1.456;2023-04-06T08:01:46;10.00;99.90
16871;DHT22;8552;48.120;-1.456;2023-04-06T08:04:12;10.00;99.90
16871;DHT22;8552;48.120;-1.456;2023-04-06T08:06:38;10.10;99.90
16871;DHT22;8552;48.120;-1.456;2023-04-06T08:09:03;10.10;99.90
16871;DHT22;8552;48.120;-1.456;2023-04-06T08:11:29;10.10;99.90
16871;DHT22;8552;48.120;-1.456;2023-04-06T08:13:55;10.10;99.90
16871;DHT22;8552;48.120;-1.456;2023-04-06T08:16:24;10.10;99.90
16871;DHT22;8552;48.120;-1.456;2023-04-06T08:18:49;10.20;99.90
16871;DHT22;8552;48.120;-1.456;2023-04-06T08:21:15;10.20;99.90
16871;DHT22;8552;48.120;-1.456;2023-04-06T08:23:41;10.20;99.90
16871;DHT22;8552;48.120;-1.456;2023-04-06T08:26:07;10.30;99.90
16871;DHT22;8552;48.120;-1.456;2023-04-06T08:28:32;10.30;99.90
16871;DHT22;8552;48.120;-1.456;2023-04-06T08:31:03;10.40;99.90
16871;DHT22;8552;48.120;-1.456;2023-04-06T08:33:29;10.40;99.90
16871;DHT22;8552;48.120;-1.456;2023-04-06T08:35:55;10.50;99.90
16871;DHT22;8552;48.120;-1.456;2023-04-06T08:38:21;10.60;99.90
16871;DHT22;8552;48.120;-1.456;2023-04-06T08:40:47;10.60;99.90
16871;DHT22;8552;48.120;-1.456;2023-04-06T08:43:17;10.60;99.90
16871;DHT22;8552;48.120;-1.456;2023-04-06T08:45:45;10.70;99.90
16871;DHT22;8552;48.120;-1.456;2023-04-06T08:48:12;10.80;99.90
16871;DHT22;8552;48.120;-1.456;2023-04-06T08:50:39;10.90;99.90
16871;DHT22;8552;48.120;-1.456;2023-04-06T08:53:06;10.90;99.90
16871;DHT22;8552;48.120;-1.456;2023-04-06T08:55:33;10.90;99.90
16871;DHT22;8552;48.120;-1.456;2023-04-06T08:57:59;10.90;99.90
16871;DHT22;8552;48.120;-1.456;2023-04-06T09:00:25;11.00;99.90
16871;DHT22;8552;48.120;-1.456;2023-04-06T09:02:53;11.10;99.90
16871;DHT22;8552;48.120;-1.456;2023-04-06T09:05:21;11.20;99.90
16871;DHT22;8552;48.120;-1.456;2023-04-06T09:07:47;11.30;99.90
16871;DHT22;8552;48.120;-1.456;2023-04-06T09:10:12;11.30;99.90
16871;DHT22;8552;48.120;-1.456;2023-04-06T09:12:38;11.30;99.90
16871;DHT22;8552;48.120;-1.456;2023-04-06T09:15:04;11.50;99.90
16871;DHT22;8552;48.120;-1.456;2023-04-06T09:17:32;11.50;99.90
16871;DHT22;8552;48.120;-1.456;2023-04-06T09:20:02;11.50;99.90
16871;DHT22;8552;48.120;-1.456;2023-04-06T09:22:41;11.60;99.90
16871;DHT22;8552;48.120;-1.456;2023-04-06T09:25:10;11.60;99.90
16871;DHT22;8552;48.120;-1.456;2023-04-06T09:27:45;11.60;99.90
16871;DHT22;8552;48.120;-1.456;2023-04-06T09:30:11;11.60;99.90
16871;DHT22;8552;48.120;-1.456;2023-04-06T09:32:50;11.70;99.90
16871;DHT22;8552;48.120;-1.456;2023-04-06T09:35:28;11.80;99.90
16871;DHT22;8552;48.120;-1.456;2023-04-06T09:38:12;11.90;99.90
16871;DHT22;8552;48.120;-1.456;2023-04-06T09:40:51;11.90;99.90
16871;DHT22;8552;48.120;-1.456;2023-04-06T09:43:33;11.90;99.90
16871;DHT22;8552;48.120;-1.456;2023-04-06T09:46:04;11.90;99.90
16871;DHT22;8552;48.120;-1.456;2023-04-06T09:48:42;12.00;99.90
16871;DHT22;8552;48.120;-1.456;2023-04-06T09:51:17;12.00;99.90
16871;DHT22;8552;48.120;-1.456;2023-04-06T09:53:53;11.90;99.90
16871;DHT22;8552;48.120;-1.456;2023-04-06T10:00:12;11.90;99.90
16871;DHT22;8552;48.120;-1.456;2023-04-06T10:03:21;11.90;99.90
16871;DHT22;8552;48.120;-1.456;2023-04-06T10:06:10;12.10;99.90
16871;DHT22;8552;48.120;-1.456;2023-04-06T10:08:51;12.10;99.90
16871;DHT22;8552;48.120;-1.456;2023-04-06T10:11:28;12.20;99.90
16871;DHT22;8552;48.120;-1.456;2023-04-06T10:14:07;12.30;99.90
16871;DHT22;8552;48.120;-1.456;2023-04-06T10:16:42;12.40;99.90
16871;DHT22;8552;48.120;-1.456;2023-04-06T10:19:30;12.50;99.90
16871;DHT22;8552;48.120;-1.456;2023-04-06T10:22:15;12.60;99.90
16871;DHT22;8552;48.120;-1.456;2023-04-06T10:24:50;12.60;99.90
16871;DHT22;8552;48.120;-1.456;2023-04-06T10:27:29;12.60;99.90
16871;DHT22;8552;48.120;-1.456;2023-04-06T10:30:17;12.70;99.90
16871;DHT22;8552;48.120;-1.456;2023-04-06T10:32:48;12.60;99.90
16871;DHT22;8552;48.120;-1.456;2023-04-06T10:35:25;12.90;99.90
16871;DHT22;8552;48.120;-1.456;2023-04-06T10:38:11;13.10;99.90
16871;DHT22;8552;48.120;-1.456;2023-04-06T10:40:48;13.30;99.90
16871;DHT22;8552;48.120;-1.456;2023-04-06T10:43:39;13.50;99.90
16871;DHT22;8552;48.120;-1.456;2023-04-06T10:46:27;13.70;99.90
16871;DHT22;8552;48.120;-1.456;2023-04-06T10:49:11;13.80;99.90
16871;DHT22;8552;48.120;-1.456;2023-04-06T10:51:55;14.00;99.90
16871;DHT22;8552;48.120;-1.456;2023-04-06T10:54:41;14.40;99.90
16871;DHT22;8552;48.120;-1.456;2023-04-06T10:57:47;14.60;99.90
16871;DHT22;8552;48.120;-1.456;2023-04-06T11:00:17;14.80;99.90
16871;DHT22;8552;48.120;-1.456;2023-04-06T11:03:03;14.90;99.90
16871;DHT22;8552;48.120;-1.456;2023-04-06T11:05:52;15.20;99.90
16871;DHT22;8552;48.120;-1.456;2023-04-06T11:08:31;15.40;99.90
16871;DHT22;8552;48.120;-1.456;2023-04-06T11:11:38;15.40;99.90
16871;DHT22;8552;48.120;-1.456;2023-04-06T11:14:20;15.50;99.90
16871;DHT22;8552;48.120;-1.456;2023-04-06T11:17:06;15.50;99.90
16871;DHT22;8552;48.120;-1.456;2023-04-06T11:19:36;15.40;99.90
16871;DHT22;8552;48.120;-1.456;2023-04-06T11:22:07;15.50;99.90
16871;DHT22;8552;48.120;-1.456;2023-04-06T11:24:33;15.50;99.90
16871;DHT22;8552;48.120;-1.456;2023-04-06T11:26:58;15.60;99.90
16871;DHT22;8552;48.120;-1.456;2023-04-06T11:29:27;15.60;99.90
16871;DHT22;8552;48.120;-1.456;2023-04-06T11:31:58;15.90;99.90
16871;DHT22;8552;48.120;-1.456;2023-04-06T11:34:25;15.80;99.90
16871;DHT22;8552;48.120;-1.456;2023-04-06T11:37:11;15.70;99.90
16871;DHT22;8552;48.120;-1.456;2023-04-06T11:39:55;15.70;99.90
16871;DHT22;8552;48.120;-1.456;2023-04-06T11:42:30;16.00;99.90
16871;DHT22;8552;48.120;-1.456;2023-04-06T11:45:08;16.20;99.90
16871;DHT22;8552;48.120;-1.456;2023-04-06T11:47:39;16.40;99.90
16871;DHT22;8552;48.120;-1.456;2023-04-06T11:50:12;16.60;99.90
16871;DHT22;8552;48.120;-1.456;2023-04-06T11:53:22;16.60;99.90
16871;DHT22;8552;48.120;-1.456;2023-04-06T11:55:56;16.80;99.90
16871;DHT22;8552;48.120;-1.456;2023-04-06T11:58:30;17.10;99.90
16871;DHT22;8552;48.120;-1.456;2023-04-06T12:01:11;17.20;99.90
16871;DHT22;8552;48.120;-1.456;2023-04-06T12:03:54;17.70;99.90
16871;DHT22;8552;48.120;-1.456;2023-04-06T12:06:44;17.80;99.90
16871;DHT22;8552;48.120;-1.456;2023-04-06T12:09:27;17.50;99.90
16871;DHT22;8552;48.120;-1.456;2023-04-06T12:12:10;17.40;99.90
16871;DHT22;8552;48.120;-1.456;2023-04-06T12:14:50;17.30;99.90
16871;DHT22;8552;48.120;-1.456;2023-04-06T12:17:29;17.10;99.90
16871;DHT22;8552;48.120;-1.456;2023-04-06T12:20:06;16.90;99.90
16871;DHT22;8552;48.120;-1.456;2023-04-06T12:22:38;16.90;99.90
16871;DHT22;8552;48.120;-1.456;2023-04-06T12:25:23;16.80;99.90
16871;DHT22;8552;48.120;-1.456;2023-04-06T12:27:56;16.80;99.90
16871;DHT22;8552;48.120;-1.456;2023-04-06T12:30:29;16.70;99.90
16871;DHT22;8552;48.120;-1.456;2023-04-06T12:33:08;16.60;99.90
16871;DHT22;8552;48.120;-1.456;2023-04-06T12:35:36;16.40;99.90
16871;DHT22;8552;48.120;-1.456;2023-04-06T12:38:13;16.40;99.90
16871;DHT22;8552;48.120;-1.456;2023-04-06T12:40:46;16.40;99.90
16871;DHT22;8552;48.120;-1.456;2023-04-06T12:43:20;16.30;99.90
16871;DHT22;8552;48.120;-1.456;2023-04-06T12:45:55;16.20;99.90
16871;DHT22;8552;48.120;-1.456;2023-04-06T12:48:24;16.10;99.90
16871;DHT22;8552;48.120;-1.456;2023-04-06T12:50:57;16.10;99.90
16871;DHT22;8552;48.120;-1.456;2023-04-06T12:53:25;16.00;99.90
16871;DHT22;8552;48.120;-1.456;2023-04-06T12:55:51;15.90;99.90
16871;DHT22;8552;48.120;-1.456;2023-04-06T12:58:17;15.80;99.90
16871;DHT22;8552;48.120;-1.456;2023-04-06T13:00:43;15.70;99.90
16871;DHT22;8552;48.120;-1.456;2023-04-06T13:03:09;15.60;99.90
16871;DHT22;8552;48.120;-1.456;2023-04-06T13:05:34;15.60;99.90
16871;DHT22;8552;48.120;-1.456;2023-04-06T13:08:00;15.70;99.90
16871;DHT22;8552;48.120;-1.456;2023-04-06T13:10:26;15.60;99.90
16871;DHT22;8552;48.120;-1.456;2023-04-06T13:12:52;15.50;99.90
16871;DHT22;8552;48.120;-1.456;2023-04-06T13:15:18;15.30;99.90
16871;DHT22;8552;48.120;-1.456;2023-04-06T13:17:43;15.10;99.90
16871;DHT22;8552;48.120;-1.456;2023-04-06T13:20:09;14.80;99.90
16871;DHT22;8552;48.120;-1.456;2023-04-06T13:22:35;14.70;99.90
16871;DHT22;8552;48.120;-1.456;2023-04-06T13:25:01;14.70;99.90
16871;DHT22;8552;48.120;-1.456;2023-04-06T13:27:27;14.60;99.90
16871;DHT22;8552;48.120;-1.456;2023-04-06T13:29:54;14.70;99.90
16871;DHT22;8552;48.120;-1.456;2023-04-06T13:32:20;14.90;99.90
16871;DHT22;8552;48.120;-1.456;2023-04-06T13:34:46;15.00;99.90
16871;DHT22;8552;48.120;-1.456;2023-04-06T13:37:18;15.10;99.90
16871;DHT22;8552;48.120;-1.456;2023-04-06T13:39:44;15.30;99.90
16871;DHT22;8552;48.120;-1.456;2023-04-06T13:42:10;15.50;99.90
16871;DHT22;8552;48.120;-1.456;2023-04-06T13:44:35;15.70;99.90
16871;DHT22;8552;48.120;-1.456;2023-04-06T13:47:01;15.80;99.90
16871;DHT22;8552;48.120;-1.456;2023-04-06T13:49:27;15.90;99.90
16871;DHT22;8552;48.120;-1.456;2023-04-06T13:51:52;16.00;99.90
16871;DHT22;8552;48.120;-1.456;2023-04-06T13:54:19;16.10;99.90
16871;DHT22;8552;48.120;-1.456;2023-04-06T13:56:45;16.30;99.90
16871;DHT22;8552;48.120;-1.456;2023-04-06T13:59:10;16.40;99.90
16871;DHT22;8552;48.120;-1.456;2023-04-06T14:01:37;16.40;99.90
16871;DHT22;8552;48.120;-1.456;2023-04-06T14:04:02;16.40;99.90
16871;DHT22;8552;48.120;-1.456;2023-04-06T14:06:28;16.50;99.90
16871;DHT22;8552;48.120;-1.456;2023-04-06T14:08:54;16.40;99.90
16871;DHT22;8552;48.120;-1.456;2023-04-06T14:11:20;16.20;99.90
16871;DHT22;8552;48.120;-1.456;2023-04-06T14:13:45;16.20;99.90
16871;DHT22;8552;48.120;-1.456;2023-04-06T14:16:12;15.90;99.90
16871;DHT22;8552;48.120;-1.456;2023-04-06T14:18:37;15.80;99.90
16871;DHT22;8552;48.120;-1.456;2023-04-06T14:21:03;15.60;99.90
16871;DHT22;8552;48.120;-1.456;2023-04-06T14:23:29;15.40;99.90
16871;DHT22;8552;48.120;-1.456;2023-04-06T14:26:05;14.60;99.90
16871;DHT22;8552;48.120;-1.456;2023-04-06T14:28:32;14.30;99.90
16871;DHT22;8552;48.120;-1.456;2023-04-06T14:31:08;14.40;99.90
16871;DHT22;8552;48.120;-1.456;2023-04-06T14:33:34;14.30;99.90
16871;DHT22;8552;48.120;-1.456;2023-04-06T14:36:03;14.30;99.90
16871;DHT22;8552;48.120;-1.456;2023-04-06T14:38:29;14.20;99.90
16871;DHT22;8552;48.120;-1.456;2023-04-06T14:40:55;14.10;99.90
16871;DHT22;8552;48.120;-1.456;2023-04-06T14:43:21;14.20;99.90
16871;DHT22;8552;48.120;-1.456;2023-04-06T14:45:47;14.10;99.90
16871;DHT22;8552;48.120;-1.456;2023-04-06T14:48:13;14.00;99.90
16871;DHT22;8552;48.120;-1.456;2023-04-06T14:50:41;14.00;99.90
16871;DHT22;8552;48.120;-1.456;2023-04-06T14:53:11;14.00;99.90
16871;DHT22;8552;48.120;-1.456;2023-04-06T14:55:41;13.90;99.90
16871;DHT22;8552;48.120;-1.456;2023-04-06T14:58:08;13.90;99.90
16871;DHT22;8552;48.120;-1.456;2023-04-06T15:00:34;13.90;99.90
16871;DHT22;8552;48.120;-1.456;2023-04-06T15:02:59;13.90;99.90
16871;DHT22;8552;48.120;-1.456;2023-04-06T15:05:25;13.90;99.90
16871;DHT22;8552;48.120;-1.456;2023-04-06T15:07:51;13.90;99.90
16871;DHT22;8552;48.120;-1.456;2023-04-06T15:10:17;13.90;99.90
16871;DHT22;8552;48.120;-1.456;2023-04-06T15:12:42;13.90;99.90
16871;DHT22;8552;48.120;-1.456;2023-04-06T15:15:08;14.10;99.90
16871;DHT22;8552;48.120;-1.456;2023-04-06T15:17:34;14.10;99.90
16871;DHT22;8552;48.120;-1.456;2023-04-06T15:20:00;14.20;99.90
16871;DHT22;8552;48.120;-1.456;2023-04-06T15:22:25;14.30;99.90
16871;DHT22;8552;48.120;-1.456;2023-04-06T15:24:51;14.50;99.90
16871;DHT22;8552;48.120;-1.456;2023-04-06T15:27:17;14.60;99.90
16871;DHT22;8552;48.120;-1.456;2023-04-06T15:29:42;14.50;99.90
16871;DHT22;8552;48.120;-1.456;2023-04-06T15:32:08;14.70;99.90
16871;DHT22;8552;48.120;-1.456;2023-04-06T15:34:34;14.80;99.90
16871;DHT22;8552;48.120;-1.456;2023-04-06T15:37:01;14.90;99.90
16871;DHT22;8552;48.120;-1.456;2023-04-06T15:39:27;15.00;99.90
16871;DHT22;8552;48.120;-1.456;2023-04-06T15:41:53;15.10;99.90
16871;DHT22;8552;48.120;-1.456;2023-04-06T15:44:19;15.40;99.90
16871;DHT22;8552;48.120;-1.456;2023-04-06T15:46:46;15.50;99.90
16871;DHT22;8552;48.120;-1.456;2023-04-06T15:49:11;15.50;99.90
16871;DHT22;8552;48.120;-1.456;2023-04-06T15:51:37;15.50;99.90